createdAt,value
2022-07-27T00:02:01.981Z,4.40
2022-07-27T00:04:32.087Z,4.47
2022-07-27T00:07:01.944Z,3.40
2022-07-27T00:09:30.875Z,3.97
2022-07-27T00:12:01.637Z,4.27
2022-07-27T00:14:33.890Z,4.43
2022-07-27T00:17:02.832Z,4.40
2022-07-27T00:19:34.629Z,4.00
2022-07-27T00:22:04.439Z,4.90
2022-07-27T00:24:32.704Z,4.27
2022-07-27T00:27:02.116Z,3.80
2022-07-27T00:29:33.302Z,3.20
2022-07-27T00:32:01.568Z,4.07
2022-07-27T00:34:31.897Z,3.80
2022-07-27T00:37:02.889Z,4.00
2022-07-27T00:39:33.101Z,4.03
2022-07-27T00:42:06.160Z,3.27
2022-07-27T00:44:37.103Z,4.63
2022-07-27T00:47:06.011Z,3.77
2022-07-27T00:49:37.373Z,3.60
2022-07-27T00:52:08.937Z,4.03
2022-07-27T00:54:37.317Z,3.13
2022-07-27T00:57:07.431Z,4.10
2022-07-27T00:59:37.513Z,4.30
2022-07-27T01:02:11.282Z,3.63
2022-07-27T01:04:41.777Z,4.03
2022-07-27T01:07:15.197Z,4.90
2022-07-27T01:09:58.190Z,3.90
2022-07-27T01:12:29.538Z,3.53
2022-07-27T01:15:01.101Z,4.13
2022-07-27T01:17:32.483Z,3.20
2022-07-27T01:20:03.821Z,4.10
2022-07-27T01:22:34.268Z,4.03
2022-07-27T01:25:04.430Z,3.60
2022-07-27T01:27:34.983Z,3.67
2022-07-27T01:30:03.653Z,3.53
2022-07-27T01:32:33.847Z,3.83
2022-07-27T01:35:04.058Z,3.60
2022-07-27T01:37:33.718Z,4.20
2022-07-27T01:40:05.406Z,3.90
2022-07-27T01:42:35.552Z,3.37
2022-07-27T01:45:04.886Z,2.87
2022-07-27T01:47:34.720Z,3.40
2022-07-27T01:50:03.208Z,3.67
2022-07-27T01:52:33.609Z,3.43
2022-07-27T01:55:04.485Z,3.70
2022-07-27T01:57:33.971Z,3.70
2022-07-27T02:00:04.005Z,3.33
2022-07-27T02:02:33.433Z,3.63
2022-07-27T02:05:05.229Z,3.33
2022-07-27T02:07:36.977Z,3.23
2022-07-27T02:10:06.255Z,3.47
2022-07-27T02:12:36.983Z,3.30
2022-07-27T02:15:08.994Z,3.43
2022-07-27T02:17:45.796Z,3.50
2022-07-27T02:20:16.155Z,3.13
2022-07-27T02:22:48.909Z,3.67
2022-07-27T02:25:20.001Z,3.63
2022-07-27T02:27:49.171Z,3.97
2022-07-27T02:30:19.334Z,3.53
2022-07-27T02:32:49.710Z,4.23
2022-07-27T02:35:18.831Z,3.90
2022-07-27T02:37:51.036Z,3.60
2022-07-27T02:40:20.639Z,2.60
2022-07-27T02:42:49.656Z,4.00
2022-07-27T02:45:20.017Z,3.80
2022-07-27T02:47:50.108Z,3.97
2022-07-27T02:50:18.762Z,3.37
2022-07-27T02:52:50.752Z,3.43
2022-07-27T02:55:19.123Z,4.27
2022-07-27T02:57:47.735Z,4.13
2022-07-27T03:00:17.452Z,3.43
2022-07-27T03:02:50.373Z,3.67
2022-07-27T03:05:20.038Z,3.43
2022-07-27T03:07:51.711Z,3.50
2022-07-27T03:10:20.905Z,3.20
2022-07-27T03:12:49.603Z,3.30
2022-07-27T03:15:17.995Z,3.47
2022-07-27T03:17:49.326Z,3.93
2022-07-27T03:20:20.167Z,3.20
2022-07-27T03:22:49.584Z,2.80
2022-07-27T03:25:21.261Z,3.43
2022-07-27T03:27:49.577Z,3.20
2022-07-27T03:30:18.973Z,3.30
2022-07-27T03:32:48.358Z,3.90
2022-07-27T03:35:19.763Z,4.20
2022-07-27T03:37:48.663Z,3.60
2022-07-27T03:40:18.938Z,3.80
2022-07-27T03:42:49.696Z,3.67
2022-07-27T03:45:18.520Z,3.30
2022-07-27T03:47:47.123Z,4.30
2022-07-27T03:50:16.922Z,3.97
2022-07-27T03:52:46.885Z,4.47
2022-07-27T03:55:16.801Z,4.30
2022-07-27T03:57:50.970Z,4.20
2022-07-27T04:00:19.524Z,4.10
2022-07-27T04:02:48.634Z,3.53
2022-07-27T04:05:18.199Z,3.70
2022-07-27T04:07:49.084Z,3.87
2022-07-27T04:10:23.301Z,3.30
2022-07-27T04:12:56.296Z,4.10
2022-07-27T04:15:25.028Z,3.67
2022-07-27T04:17:57.542Z,4.43
2022-07-27T04:20:26.856Z,3.80
2022-07-27T04:22:56.202Z,3.23
2022-07-27T04:25:27.438Z,3.93
2022-07-27T04:27:58.688Z,3.40
2022-07-27T04:30:28.274Z,4.33
2022-07-27T04:32:58.256Z,4.40
2022-07-27T04:35:26.981Z,3.90
2022-07-27T04:37:58.460Z,3.97
2022-07-27T04:40:33.918Z,3.40
2022-07-27T04:43:07.683Z,4.23
2022-07-27T04:45:38.491Z,4.00
2022-07-27T04:48:08.480Z,3.87
2022-07-27T04:50:41.142Z,3.83
2022-07-27T04:53:11.130Z,4.70
2022-07-27T04:55:43.173Z,3.73
2022-07-27T04:58:15.762Z,3.73
2022-07-27T05:00:44.697Z,3.90
2022-07-27T05:03:14.591Z,4.10
2022-07-27T05:05:49.872Z,3.83
2022-07-27T05:08:20.608Z,4.37
2022-07-27T05:10:50.927Z,3.70
2022-07-27T05:13:22.834Z,4.17
2022-07-27T05:15:54.011Z,4.37
2022-07-27T05:18:25.608Z,3.77
2022-07-27T05:20:54.589Z,4.00
2022-07-27T05:23:25.590Z,3.17
2022-07-27T05:25:54.905Z,3.80
2022-07-27T05:28:24.683Z,4.13
2022-07-27T05:30:53.715Z,3.80
2022-07-27T05:33:23.293Z,3.83
2022-07-27T05:35:54.220Z,3.27
2022-07-27T05:38:22.573Z,4.23
2022-07-27T05:40:53.265Z,4.27
2022-07-27T05:43:25.298Z,3.83
2022-07-27T05:45:53.679Z,4.00
2022-07-27T05:48:22.640Z,4.40
2022-07-27T05:50:52.800Z,3.70
2022-07-27T05:53:21.657Z,3.97
2022-07-27T05:55:59.320Z,4.37
2022-07-27T05:58:31.125Z,4.40
2022-07-27T06:01:00.184Z,3.53
2022-07-27T06:03:30.512Z,3.90
2022-07-27T06:06:19.045Z,4.83
2022-07-27T06:08:49.824Z,4.03
2022-07-27T06:11:20.840Z,4.23
2022-07-27T06:13:51.025Z,3.40
2022-07-27T06:16:20.661Z,3.97
2022-07-27T06:18:50.567Z,3.40
2022-07-27T06:21:18.924Z,4.40
2022-07-27T06:23:48.549Z,4.00
2022-07-27T06:26:18.374Z,4.70
2022-07-27T06:28:47.536Z,4.13
2022-07-27T06:31:17.233Z,3.73
2022-07-27T06:33:46.087Z,4.47
2022-07-27T06:36:20.492Z,3.60
2022-07-27T06:38:48.860Z,5.40
2022-07-27T06:41:19.999Z,4.80
2022-07-27T06:43:49.943Z,6.07
2022-07-27T06:46:19.919Z,6.37
2022-07-27T06:48:50.419Z,5.90
2022-07-27T06:51:20.432Z,5.90
2022-07-27T06:53:48.681Z,6.20
2022-07-27T06:56:17.995Z,6.30
2022-07-27T06:58:46.939Z,5.90
2022-07-27T07:01:16.270Z,6.40
2022-07-27T07:03:48.426Z,6.57
2022-07-27T07:06:17.518Z,6.30
2022-07-27T07:08:47.642Z,6.57
2022-07-27T07:11:16.602Z,5.93
2022-07-27T07:13:45.446Z,6.00
2022-07-27T07:16:15.985Z,5.50
2022-07-27T07:18:52.230Z,5.80
2022-07-27T07:21:22.482Z,5.90
2022-07-27T07:23:52.459Z,6.87
2022-07-27T07:26:21.289Z,6.07
2022-07-27T07:28:49.632Z,6.33
2022-07-27T07:31:20.039Z,5.13
2022-07-27T07:33:52.337Z,5.30
2022-07-27T07:36:21.591Z,4.93
2022-07-27T07:38:51.661Z,5.53
2022-07-27T07:41:21.187Z,5.67
2022-07-27T07:43:50.096Z,5.53
2022-07-27T07:46:19.469Z,5.17
2022-07-27T07:48:48.250Z,5.33
2022-07-27T07:51:19.394Z,4.97
2022-07-27T07:53:49.074Z,5.10
2022-07-27T07:56:20.131Z,5.43
2022-07-27T07:58:53.812Z,4.40
2022-07-27T08:01:26.353Z,5.50
2022-07-27T08:03:55.443Z,5.00
2022-07-27T08:06:26.125Z,4.57
2022-07-27T08:08:54.615Z,5.20
2022-07-27T08:11:29.413Z,5.30
2022-07-27T08:14:00.904Z,4.83
2022-07-27T08:16:30.610Z,5.00
2022-07-27T08:18:59.391Z,4.87
2022-07-27T08:21:35.327Z,6.10
2022-07-27T08:24:06.347Z,4.40
2022-07-27T08:26:36.232Z,4.97
2022-07-27T08:29:11.292Z,4.37
2022-07-27T08:31:52.951Z,4.57
2022-07-27T08:34:23.990Z,4.70
2022-07-27T08:36:55.073Z,4.70
2022-07-27T08:40:20.031Z,4.70
2022-07-27T08:42:14.779Z,3.50
2022-07-27T08:44:43.166Z,4.50
2022-07-27T08:47:12.417Z,4.70
2022-07-27T08:49:43.989Z,3.93
2022-07-27T08:52:14.350Z,3.73
2022-07-27T08:54:43.483Z,4.13
2022-07-27T08:57:14.669Z,3.80
2022-07-27T08:59:43.420Z,4.30
2022-07-27T09:02:15.435Z,3.77
2022-07-27T09:04:44.572Z,4.80
2022-07-27T09:07:28.828Z,3.83
2022-07-27T09:10:00.495Z,4.20
2022-07-27T09:12:29.960Z,4.30
2022-07-27T09:15:07.781Z,3.60
2022-07-27T09:17:52.291Z,4.20
2022-07-27T09:20:22.797Z,3.90
2022-07-27T09:22:56.382Z,4.53
2022-07-27T09:25:52.615Z,4.03
2022-07-27T09:28:31.066Z,4.50
2022-07-27T09:31:07.589Z,4.10
2022-07-27T09:33:45.953Z,4.70
2022-07-27T09:36:16.663Z,4.50
2022-07-27T09:39:11.286Z,4.20
2022-07-27T09:41:42.326Z,4.30
2022-07-27T09:44:31.840Z,4.37
2022-07-27T09:47:02.150Z,5.60
2022-07-27T09:49:32.744Z,5.80
2022-07-27T09:52:04.328Z,4.60
2022-07-27T09:54:45.386Z,5.23
2022-07-27T09:57:14.836Z,5.27
2022-07-27T09:59:43.925Z,4.77
2022-07-27T10:02:14.389Z,5.03
2022-07-27T10:04:43.642Z,4.40
2022-07-27T10:07:13.944Z,4.80
2022-07-27T10:09:47.091Z,5.60
2022-07-27T10:12:16.303Z,6.37
2022-07-27T10:14:47.630Z,4.97
2022-07-27T10:17:18.169Z,4.60
2022-07-27T10:19:50.682Z,4.90
2022-07-27T10:22:51.496Z,4.43
2022-07-27T10:25:22.793Z,6.07
2022-07-27T10:28:09.686Z,4.40
2022-07-27T10:30:38.735Z,4.90
2022-07-27T10:33:16.856Z,4.47
2022-07-27T10:35:45.365Z,4.70
2022-07-27T10:38:18.545Z,3.83
2022-07-27T10:40:49.331Z,4.30
2022-07-27T10:43:23.073Z,4.17
2022-07-27T10:46:01.413Z,4.50
2022-07-27T10:48:38.986Z,5.40
2022-07-27T10:51:12.476Z,4.50
2022-07-27T10:54:11.104Z,4.27
2022-07-27T10:56:47.504Z,5.10
2022-07-27T10:59:16.797Z,5.03
2022-07-27T11:02:01.454Z,4.33
2022-07-27T11:04:30.554Z,4.80
2022-07-27T11:10:10.412Z,5.50
2022-07-27T11:12:43.754Z,3.90
2022-07-27T11:15:12.186Z,4.30
2022-07-27T11:17:58.426Z,4.57
2022-07-27T11:20:31.776Z,4.93
2022-07-27T11:25:59.128Z,4.27
2022-07-27T11:28:32.735Z,5.33
2022-07-27T11:31:03.811Z,4.67
2022-07-27T11:33:33.041Z,4.60
2022-07-27T11:36:02.787Z,4.63
2022-07-27T11:38:46.802Z,5.90
2022-07-27T11:41:47.880Z,5.90
2022-07-27T11:44:17.570Z,5.67
2022-07-27T11:46:47.865Z,6.07
2022-07-27T11:49:20.688Z,6.03
2022-07-27T11:51:51.652Z,5.20
2022-07-27T11:54:23.939Z,5.83
2022-07-27T11:56:55.367Z,5.27
2022-07-27T11:59:27.458Z,5.60
2022-07-27T12:01:59.125Z,5.47
2022-07-27T12:04:28.972Z,5.80
2022-07-27T12:07:07.784Z,6.53
2022-07-27T12:09:40.350Z,5.10
2022-07-27T12:12:15.820Z,6.13
2022-07-27T12:14:48.990Z,6.30
2022-07-27T12:17:29.240Z,6.90
2022-07-27T12:20:08.438Z,5.90
2022-07-27T12:22:45.227Z,6.67
2022-07-27T12:25:29.762Z,6.13
2022-07-27T12:27:59.863Z,7.20
2022-07-27T12:30:32.770Z,7.40
2022-07-27T12:33:08.138Z,6.60
2022-07-27T12:35:46.765Z,7.20
2022-07-27T12:38:17.609Z,6.43
2022-07-27T12:40:49.660Z,6.00
2022-07-27T12:43:19.460Z,4.70
2022-07-27T12:45:50.867Z,3.50
2022-07-27T12:48:22.013Z,2.90
2022-07-27T12:50:59.796Z,2.87
2022-07-27T12:53:28.580Z,3.03
2022-07-27T12:56:01.295Z,3.37
2022-07-27T12:58:30.382Z,2.43
2022-07-27T13:01:00.846Z,3.20
2022-07-27T13:03:33.549Z,3.10
2022-07-27T13:06:10.808Z,3.60
2022-07-27T13:08:44.063Z,4.40
2022-07-27T13:11:13.785Z,3.67
2022-07-27T13:13:43.105Z,3.43
2022-07-27T13:16:16.705Z,3.57
2022-07-27T13:18:46.035Z,3.80
2022-07-27T13:21:16.237Z,4.80
2022-07-27T13:23:47.350Z,4.10
2022-07-27T13:26:15.707Z,3.57
2022-07-27T13:28:43.912Z,4.37
2022-07-27T13:31:12.932Z,3.60
2022-07-27T13:33:44.129Z,3.70
2022-07-27T13:36:14.756Z,3.50
2022-07-27T13:38:44.045Z,4.40
2022-07-27T13:41:13.889Z,4.73
2022-07-27T13:43:42.074Z,4.23
2022-07-27T13:46:11.492Z,4.40
2022-07-27T13:48:40.843Z,4.20
2022-07-27T13:51:14.829Z,5.30
2022-07-27T13:53:46.558Z,4.30
2022-07-27T13:56:25.143Z,4.40
2022-07-27T13:58:55.588Z,4.60
2022-07-27T14:01:28.877Z,5.00
2022-07-27T14:03:59.846Z,4.87
2022-07-27T14:06:30.168Z,3.90
2022-07-27T14:09:01.052Z,4.87
2022-07-27T14:11:30.675Z,3.93
2022-07-27T14:14:17.444Z,4.20
2022-07-27T14:17:11.867Z,4.60
2022-07-27T14:19:58.936Z,4.00
2022-07-27T14:22:47.393Z,4.50
2022-07-27T14:25:34.268Z,3.43
2022-07-27T14:28:21.609Z,3.97
2022-07-27T14:31:10.181Z,4.07
2022-07-27T14:33:56.972Z,4.10
2022-07-27T14:36:44.039Z,4.77
2022-07-27T14:39:32.425Z,3.70
2022-07-27T14:42:22.323Z,4.40
2022-07-27T14:45:10.401Z,4.63
2022-07-27T14:47:57.408Z,4.00
2022-07-27T14:50:44.146Z,4.30
2022-07-27T14:53:30.896Z,3.67
2022-07-27T14:56:19.415Z,3.83
2022-07-27T14:59:06.737Z,3.33
2022-07-27T15:01:54.130Z,3.37
2022-07-27T15:04:41.001Z,3.67
2022-07-27T15:07:28.143Z,3.30
2022-07-27T15:09:57.243Z,3.93
2022-07-27T15:12:33.762Z,4.30
2022-07-27T15:15:08.221Z,3.73
2022-07-27T15:17:37.629Z,3.93
2022-07-27T15:20:13.397Z,3.83
2022-07-27T15:22:41.780Z,3.60
2022-07-27T15:25:12.481Z,4.00
2022-07-27T15:27:42.560Z,3.57
2022-07-27T15:30:11.667Z,4.37
2022-07-27T15:32:39.889Z,4.83
2022-07-27T15:35:09.019Z,3.50
2022-07-27T15:37:39.261Z,3.27
2022-07-27T15:40:26.787Z,3.30
2022-07-27T15:43:03.614Z,2.90
2022-07-27T15:45:32.001Z,4.10
2022-07-27T15:48:00.366Z,3.90
2022-07-27T15:50:29.057Z,3.90
2022-07-27T15:53:00.942Z,3.80
2022-07-27T15:55:29.518Z,3.20
2022-07-27T15:57:59.152Z,3.33
2022-07-27T16:00:27.680Z,3.10
2022-07-27T16:03:14.767Z,3.20
2022-07-27T16:06:08.112Z,2.97
2022-07-27T16:09:00.761Z,3.10
2022-07-27T16:11:45.377Z,3.00
2022-07-27T16:14:30.245Z,3.47
2022-07-27T16:17:31.913Z,3.33
2022-07-27T16:20:28.103Z,4.20
2022-07-27T16:23:45.322Z,4.27
2022-07-27T16:26:50.995Z,4.37
2022-07-27T16:29:55.082Z,3.33
2022-07-27T16:32:42.875Z,4.00
2022-07-27T16:36:11.044Z,3.07
2022-07-27T16:39:03.267Z,3.50
2022-07-27T16:42:24.715Z,3.13
2022-07-27T16:45:37.205Z,3.10
2022-07-27T16:49:13.842Z,3.73
2022-07-27T16:52:28.874Z,3.70
2022-07-27T16:55:27.522Z,3.60
2022-07-27T16:59:03.818Z,3.63
2022-07-27T17:02:21.940Z,3.80
2022-07-27T17:05:38.422Z,3.60
2022-07-27T17:08:11.018Z,3.10
2022-07-27T17:10:39.848Z,3.37
2022-07-27T17:13:13.410Z,3.27
2022-07-27T17:15:42.234Z,3.63
2022-07-27T17:18:12.413Z,3.20
2022-07-27T17:20:41.628Z,2.87
2022-07-27T17:23:12.236Z,2.87
2022-07-27T17:25:40.628Z,3.90
2022-07-27T17:28:09.111Z,4.37
2022-07-27T17:30:38.467Z,3.93
2022-07-27T17:33:07.829Z,3.67
2022-07-27T17:35:40.747Z,3.90
2022-07-27T17:38:09.290Z,4.10
2022-07-27T17:40:37.541Z,4.07
2022-07-27T17:43:05.859Z,3.90
2022-07-27T17:45:34.276Z,3.93
2022-07-27T17:48:02.514Z,4.27
2022-07-27T17:50:30.829Z,4.63
2022-07-27T17:53:01.713Z,3.50
2022-07-27T17:55:30.149Z,4.23
2022-07-27T17:57:58.494Z,4.80
2022-07-27T18:00:27.236Z,4.00
2022-07-27T18:02:55.452Z,4.27
2022-07-27T18:05:24.096Z,4.00
2022-07-27T18:07:54.002Z,5.37
2022-07-27T18:10:27.154Z,4.30
2022-07-27T18:12:55.482Z,4.53
2022-07-27T18:15:41.270Z,3.50
2022-07-27T18:18:09.619Z,4.80
2022-07-27T18:20:38.387Z,4.60
2022-07-27T18:23:08.164Z,3.77
2022-07-27T18:25:38.070Z,5.03
2022-07-27T18:28:06.685Z,4.70
2022-07-27T18:30:35.313Z,4.63
2022-07-27T18:33:03.493Z,5.50
2022-07-27T18:35:31.659Z,4.20
2022-07-27T18:38:04.608Z,5.00
2022-07-27T18:40:33.028Z,5.90
2022-07-27T18:43:03.214Z,5.40
2022-07-27T18:45:34.659Z,4.00
2022-07-27T18:48:03.790Z,4.90
2022-07-27T18:52:19.255Z,4.73
2022-07-27T18:54:47.434Z,4.97
2022-07-27T18:57:15.772Z,5.20
2022-07-27T18:59:44.247Z,5.07
2022-07-27T19:02:12.694Z,4.97
2022-07-27T19:04:41.175Z,4.97
2022-07-27T19:07:10.022Z,5.17
2022-07-27T19:09:39.813Z,5.70
2022-07-27T19:12:09.826Z,4.97
2022-07-27T19:14:39.030Z,5.00
2022-07-27T19:17:08.076Z,4.93
2022-07-27T19:19:42.920Z,5.60
2022-07-27T19:22:13.174Z,4.60
2022-07-27T19:24:43.345Z,5.43
2022-07-27T19:27:15.365Z,5.70
2022-07-27T19:29:43.943Z,5.40
2022-07-27T19:32:12.774Z,5.17
2022-07-27T19:34:40.957Z,5.20
2022-07-27T19:37:09.432Z,4.90
2022-07-27T19:39:57.101Z,5.27
2022-07-27T19:42:27.422Z,5.33
2022-07-27T19:44:55.632Z,5.10
2022-07-27T19:47:25.378Z,4.80
2022-07-27T19:49:53.704Z,5.60
2022-07-27T19:52:22.120Z,5.57
2022-07-27T19:54:50.311Z,5.70
2022-07-27T19:57:18.439Z,4.70
2022-07-27T19:59:55.772Z,6.07
2022-07-27T20:02:25.544Z,6.50
2022-07-27T20:04:53.855Z,5.33
2022-07-27T20:07:22.062Z,5.10
2022-07-27T20:09:50.258Z,4.90
2022-07-27T20:12:18.767Z,5.30
2022-07-27T20:14:48.321Z,4.97
2022-07-27T20:17:17.539Z,4.03
2022-07-27T20:19:46.785Z,3.77
2022-07-27T20:22:16.592Z,4.63
2022-07-27T20:24:44.961Z,4.40
2022-07-27T20:27:13.194Z,4.00
2022-07-27T20:29:41.376Z,4.00
2022-07-27T20:32:11.607Z,4.30
2022-07-27T20:34:39.846Z,4.03
2022-07-27T20:37:08.186Z,4.23
2022-07-27T20:39:36.283Z,3.97
2022-07-27T20:42:04.824Z,3.90
2022-07-27T20:44:33.068Z,4.07
2022-07-27T20:47:01.178Z,4.27
2022-07-27T20:49:30.819Z,4.07
2022-07-27T20:51:59.040Z,3.60
2022-07-27T20:54:29.364Z,4.57
2022-07-27T20:56:57.917Z,5.80
2022-07-27T20:59:26.091Z,4.30
2022-07-27T21:01:54.641Z,4.23
2022-07-27T21:04:24.053Z,3.93
2022-07-27T21:06:54.274Z,5.07
2022-07-27T21:09:22.593Z,4.50
2022-07-27T21:11:51.148Z,4.47
2022-07-27T21:14:19.361Z,4.33
2022-07-27T21:16:47.499Z,3.70
2022-07-27T21:19:16.293Z,4.00
2022-07-27T21:21:44.970Z,4.40
2022-07-27T21:24:17.420Z,3.60
2022-07-27T21:26:48.541Z,5.00
2022-07-27T21:29:17.154Z,5.67
2022-07-27T21:31:48.171Z,10.70
2022-07-27T21:34:18.583Z,10.00
2022-07-27T21:36:47.412Z,7.50
2022-07-27T21:39:18.048Z,6.37
2022-07-27T21:41:46.536Z,6.00
2022-07-27T21:44:15.174Z,5.80
2022-07-27T21:46:43.647Z,5.20
2022-07-27T21:49:13.286Z,4.40
2022-07-27T21:51:41.491Z,4.20
2022-07-27T21:54:09.946Z,5.07
2022-07-27T21:56:41.918Z,4.90
2022-07-27T21:59:11.428Z,5.87
2022-07-27T22:01:39.712Z,4.77
2022-07-27T22:04:07.938Z,4.63
2022-07-27T22:06:36.189Z,4.63
2022-07-27T22:09:04.609Z,5.13
2022-07-27T22:11:32.807Z,5.27
2022-07-27T22:14:02.369Z,4.60
2022-07-27T22:16:30.681Z,4.73
2022-07-27T22:18:58.940Z,3.90
2022-07-27T22:21:28.367Z,4.27
2022-07-27T22:23:56.714Z,4.10
2022-07-27T22:26:24.897Z,4.17
2022-07-27T22:28:53.138Z,4.87
2022-07-27T22:31:23.531Z,4.67
2022-07-27T22:33:51.878Z,5.53
2022-07-27T22:36:20.085Z,4.43
2022-07-27T22:38:48.462Z,4.90
2022-07-27T22:41:16.737Z,4.67
2022-07-27T22:43:44.870Z,5.10
2022-07-27T22:46:13.092Z,4.13
2022-07-27T22:48:42.711Z,4.57
2022-07-27T22:51:11.024Z,5.43
2022-07-27T22:53:39.446Z,4.90
2022-07-27T22:56:07.723Z,4.80
2022-07-27T22:58:35.924Z,4.23
2022-07-27T23:01:04.122Z,4.97
2022-07-27T23:03:32.323Z,4.73
2022-07-27T23:06:01.859Z,5.30
2022-07-27T23:08:29.950Z,5.20
2022-07-27T23:10:58.129Z,4.20
2022-07-27T23:13:26.232Z,4.50
2022-07-27T23:16:02.219Z,4.30
2022-07-27T23:18:30.562Z,4.30
2022-07-27T23:20:58.686Z,3.93
2022-07-27T23:23:28.741Z,4.40
2022-07-27T23:26:03.906Z,5.13
2022-07-27T23:28:32.586Z,4.63
2022-07-27T23:31:01.841Z,4.97
2022-07-27T23:33:30.419Z,3.93
2022-07-27T23:35:58.656Z,3.80
2022-07-27T23:38:28.678Z,3.87
2022-07-27T23:40:56.859Z,4.30
2022-07-27T23:43:27.671Z,4.30
2022-07-27T23:45:55.808Z,5.23
2022-07-27T23:48:25.184Z,4.80
2022-07-27T23:50:54.089Z,3.97
2022-07-27T23:53:22.669Z,4.30
2022-07-27T23:55:52.485Z,4.10
2022-07-27T23:58:20.601Z,3.90
